Time;durP1;ratioP1;P1;durP2;ratioP2;P2;SDS_P1;SDS_P2;PMS_P1;PMS_P2;Temp;Humidity;BMP_temperature;BMP_pressure;BME280_temperature;BME280_humidity;BME280_pressure;Samples;Min_cycle;Max_cycle;Signal;HPM_P1;HPM_P2
2022/09/19 00:01:37;;;;;;;3.80;1.30;;;;;;;9.03;100.00;100444.75;5997686;28;20074;-64
2022/09/19 00:04:33;;;;;;;3.53;1.42;;;;;;;9.07;100.00;100443.53;5998813;28;20043;-65
2022/09/19 00:07:28;;;;;;;4.57;1.27;;;;;;;9.01;100.00;100430.84;5998618;28;20039;-66
2022/09/19 00:10:23;;;;;;;3.90;1.33;;;;;;;8.95;100.00;100432.25;5998171;28;20141;-66
2022/09/19 00:13:19;;;;;;;2.80;1.50;;;;;;;9.01;100.00;100447.56;5998619;28;20478;-65
2022/09/19 00:16:21;;;;;;;3.37;1.50;;;;;;;8.93;100.00;100427.13;5998860;28;20061;-65
2022/09/19 00:19:19;;;;;;;3.83;1.70;;;;;;;9.01;100.00;100444.09;5999070;28;20038;-65
2022/09/19 00:22:14;;;;;;;2.85;1.58;;;;;;;9.02;100.00;100451.88;5998054;28;20086;-65
2022/09/19 00:25:09;;;;;;;4.63;1.30;;;;;;;8.98;100.00;100453.97;5998518;28;20537;-64
2022/09/19 00:28:05;;;;;;;5.13;1.60;;;;;;;8.96;100.00;100447.16;5998310;28;20042;-65
2022/09/19 00:31:00;;;;;;;7.60;1.70;;;;;;;8.99;100.00;100463.56;5997893;28;20034;-64
2022/09/19 00:33:56;;;;;;;5.38;1.45;;;;;;;9.07;100.00;100469.97;5998224;28;20415;-65
2022/09/19 00:36:51;;;;;;;6.97;2.50;;;;;;;9.04;100.00;100471.09;5998062;28;20074;-66
2022/09/19 00:39:46;;;;;;;4.70;1.30;;;;;;;9.07;100.00;100470.81;5998758;28;20066;-65
2022/09/19 00:42:42;;;;;;;4.60;1.50;;;;;;;9.04;100.00;100468.44;5997716;28;20329;-65
2022/09/19 00:45:37;;;;;;;4.63;1.17;;;;;;;9.04;100.00;100457.88;5998394;28;20027;-66
2022/09/19 00:48:34;;;;;;;3.88;1.00;;;;;;;9.04;100.00;100473.72;5998300;28;20037;-64
2022/09/19 00:51:32;;;;;;;2.80;1.13;;;;;;;9.01;100.00;100478.47;5999182;28;20062;-65
2022/09/19 00:54:33;;;;;;;4.38;1.40;;;;;;;9.06;100.00;100500.88;6001851;28;20542;-64
2022/09/19 00:58:05;;;;;;;2.70;1.13;;;;;;;9.02;100.00;100486.28;6001144;28;20039;-65
2022/09/19 01:01:01;;;;;;;2.58;1.10;;;;;;;8.97;100.00;100483.19;6001681;28;20478;-65
2022/09/19 01:03:57;;;;;;;2.90;1.20;;;;;;;8.99;100.00;100500.59;6020551;28;20034;-65
2022/09/19 01:07:13;;;;;;;4.23;1.13;;;;;;;9.02;100.00;100507.44;6026404;28;20041;-65
2022/09/19 01:10:23;;;;;;;1.45;0.98;;;;;;;8.93;100.00;100495.88;6013635;28;20065;-65
2022/09/19 01:13:30;;;;;;;3.22;0.90;;;;;;;9.05;100.00;100525.63;6017606;28;20034;-66
2022/09/19 01:16:41;;;;;;;5.18;1.58;;;;;;;8.96;100.00;100514.13;6001137;28;20500;-66
2022/09/19 01:19:58;;;;;;;2.13;1.00;;;;;;;9.06;100.00;100537.91;6002073;28;20430;-65
2022/09/19 01:23:21;;;;;;;4.47;0.80;;;;;;;8.98;100.00;100524.53;6001765;28;20110;-65
2022/09/19 01:26:32;;;;;;;2.83;1.10;;;;;;;9.05;100.00;100540.69;5993830;28;20109;-65
2022/09/19 01:29:52;;;;;;;5.45;1.17;;;;;;;9.03;100.00;100538.19;6002485;28;20113;-66
2022/09/19 01:33:03;;;;;;;5.10;1.23;;;;;;;9.06;100.00;100545.00;6000331;28;20073;-65
2022/09/19 01:35:59;;;;;;;3.45;1.13;;;;;;;9.08;100.00;100562.38;6000951;28;20034;-64
2022/09/19 01:38:55;;;;;;;8.50;1.42;;;;;;;9.07;100.00;100555.44;6000269;28;20058;-66
2022/09/19 01:41:53;;;;;;;6.05;1.13;;;;;;;8.99;100.00;100550.03;6006586;28;20045;-64
2022/09/19 01:44:49;;;;;;;2.75;1.00;;;;;;;9.00;100.00;100559.59;5998830;28;20486;-65
2022/09/19 01:48:00;;;;;;;2.85;1.08;;;;;;;9.00;100.00;100564.91;6001438;28;20054;-65
2022/09/19 01:51:18;;;;;;;3.55;1.15;;;;;;;8.93;100.00;100569.09;6000110;28;20042;-65
2022/09/19 01:54:21;;;;;;;4.60;0.80;;;;;;;8.96;100.00;100584.69;5994326;28;20042;-66
2022/09/19 01:57:34;;;;;;;3.53;0.95;;;;;;;8.94;100.00;100584.00;6001590;28;20031;-65
2022/09/19 02:00:32;;;;;;;4.10;0.98;;;;;;;8.92;100.00;100585.91;6000899;28;20043;-65
2022/09/19 02:03:56;;;;;;;2.63;0.98;;;;;;;8.96;100.00;100589.97;5999768;28;20069;-66
2022/09/19 02:07:07;;;;;;;5.40;1.20;;;;;;;8.88;100.00;100572.16;6001105;28;20027;-65
2022/09/19 02:10:06;;;;;;;5.18;1.10;;;;;;;8.97;100.00;100595.09;5999702;28;20039;-65
2022/09/19 02:13:04;;;;;;;4.97;1.40;;;;;;;8.95;100.00;100588.28;6001248;28;20049;-65
2022/09/19 02:16:13;;;;;;;3.78;1.20;;;;;;;8.91;100.00;100578.97;6000055;28;20035;-65
2022/09/19 02:19:25;;;;;;;6.80;1.88;;;;;;;8.88;100.00;100587.19;6013328;28;20487;-66
2022/09/19 02:22:26;;;;;;;5.78;1.48;;;;;;;8.87;100.00;100588.13;5999007;28;20038;-65
2022/09/19 02:25:25;;;;;;;7.15;1.77;;;;;;;8.78;100.00;100588.97;5999675;28;20047;-65
2022/09/19 02:28:31;;;;;;;4.32;1.55;;;;;;;8.71;100.00;100591.34;5999859;28;20034;-66
2022/09/19 02:31:27;;;;;;;5.60;1.60;;;;;;;8.77;100.00;100608.47;6000172;28;20105;-66
2022/09/19 02:34:22;;;;;;;5.57;1.63;;;;;;;8.69;100.00;100590.66;6000630;28;20042;-66
2022/09/19 02:37:27;;;;;;;10.55;1.65;;;;;;;8.72;100.00;100615.97;6000783;28;20034;-65
2022/09/19 02:40:25;;;;;;;7.43;1.60;;;;;;;8.69;100.00;100614.44;6003077;28;20109;-66
2022/09/19 02:43:33;;;;;;;6.07;1.70;;;;;;;8.66;100.00;100619.16;5999597;28;20054;-66
2022/09/19 02:46:50;;;;;;;6.70;1.60;;;;;;;8.66;100.00;100624.44;5999245;28;20041;-65
2022/09/19 02:49:50;;;;;;;4.22;1.80;;;;;;;8.55;100.00;100612.16;6000157;28;20031;-66
2022/09/19 02:52:47;;;;;;;6.00;2.10;;;;;;;8.64;100.00;100632.47;5998424;28;20390;-66
2022/09/19 02:55:47;;;;;;;8.00;2.38;;;;;;;8.56;100.00;100620.94;6000218;28;20117;-65
2022/09/19 02:58:47;;;;;;;6.22;3.13;;;;;;;8.64;100.00;100621.09;6006038;28;20057;-66
2022/09/19 03:01:48;;;;;;;8.98;3.22;;;;;;;8.65;100.00;100625.41;5998699;28;20478;-66
2022/09/19 03:04:47;;;;;;;8.45;3.15;;;;;;;8.67;100.00;100637.50;5998881;28;20428;-65
2022/09/19 03:07:48;;;;;;;5.18;2.40;;;;;;;8.60;100.00;100630.25;6000303;28;20035;-67
2022/09/19 03:10:46;;;;;;;6.00;2.67;;;;;;;8.65;100.00;100646.53;5999016;28;20446;-65
2022/09/19 03:13:42;;;;;;;8.40;2.58;;;;;;;8.52;100.00;100638.03;5998153;28;20106;-66
2022/09/19 03:16:40;;;;;;;6.78;2.97;;;;;;;8.60;100.00;100651.41;5999626;28;20060;-66
2022/09/19 03:19:36;;;;;;;5.80;2.90;;;;;;;8.49;100.00;100640.94;6014440;28;20676;-65
2022/09/19 03:22:31;;;;;;;10.55;3.20;;;;;;;8.49;100.00;100648.84;5985165;28;20034;-66
2022/09/19 03:25:27;;;;;;;7.60;3.17;;;;;;;8.49;100.00;100662.91;5999672;28;20026;-67
2022/09/19 03:28:22;;;;;;;9.43;3.22;;;;;;;8.46;100.00;100664.97;6000024;28;20035;-66
2022/09/19 03:31:18;;;;;;;9.57;3.30;;;;;;;8.33;100.00;100659.94;5998622;28;20426;-66
2022/09/19 03:34:13;;;;;;;7.87;3.03;;;;;;;8.36;100.00;100665.81;5999250;28;20473;-66
2022/09/19 03:37:09;;;;;;;7.10;3.00;;;;;;;8.36;100.00;100671.09;5999683;28;20035;-66
2022/09/19 03:40:05;;;;;;;7.03;3.05;;;;;;;8.26;100.00;100664.06;5998085;28;20476;-66
2022/09/19 03:43:01;;;;;;;7.07;2.80;;;;;;;8.27;100.00;100671.88;5999183;28;20027;-66
2022/09/19 03:45:56;;;;;;;6.38;2.55;;;;;;;8.28;100.00;100670.91;5999341;28;20121;-66
2022/09/19 03:48:52;;;;;;;5.63;3.05;;;;;;;8.22;100.00;100679.31;5998902;28;20336;-66
2022/09/19 03:51:49;;;;;;;6.60;3.35;;;;;;;8.29;100.00;100693.69;5998931;28;20043;-66
2022/09/19 03:54:44;;;;;;;6.43;3.13;;;;;;;8.23;100.00;100690.72;5998983;28;20090;-67
2022/09/19 03:57:40;;;;;;;6.30;2.50;;;;;;;8.17;100.00;100681.53;5998775;28;20031;-66
2022/09/19 04:00:35;;;;;;;6.37;2.37;;;;;;;8.17;100.00;100689.44;5998112;28;20031;-66
2022/09/19 04:03:30;;;;;;;6.27;1.90;;;;;;;8.17;100.00;100691.25;5998893;28;20352;-67
2022/09/19 04:06:26;;;;;;;7.53;2.20;;;;;;;8.09;100.00;100689.28;5999010;28;20035;-67
2022/09/19 04:09:21;;;;;;;6.47;2.38;;;;;;;8.09;100.00;100689.28;5998664;28;20062;-66
2022/09/19 04:12:16;;;;;;;5.30;2.50;;;;;;;8.09;100.00;100691.91;5997694;28;20065;-65
2022/09/19 04:15:12;;;;;;;6.60;1.80;;;;;;;8.17;100.00;100705.31;5998763;28;20041;-67
2022/09/19 04:18:09;;;;;;;6.37;1.93;;;;;;;8.18;100.00;100712.22;6011493;28;20403;-66
2022/09/19 04:21:04;;;;;;;8.23;1.95;;;;;;;8.15;100.00;100712.50;6021428;28;20122;-66
2022/09/19 04:24:00;;;;;;;6.80;2.10;;;;;;;8.06;100.00;100699.25;6008191;28;20360;-64
2022/09/19 04:26:57;;;;;;;7.35;2.65;;;;;;;8.06;100.00;100702.72;5998429;28;20085;-68
2022/09/19 04:29:52;;;;;;;4.40;2.20;;;;;;;8.07;100.00;100704.38;5998428;28;20100;-64
2022/09/19 04:32:48;;;;;;;4.33;1.73;;;;;;;8.14;100.00;100712.63;5997786;28;20038;-66
2022/09/19 04:35:45;;;;;;;6.40;1.95;;;;;;;8.12;100.00;100712.78;5997351;28;20030;-67
2022/09/19 04:38:40;;;;;;;6.82;1.83;;;;;;;8.12;100.00;100720.72;5998297;28;20031;-64
2022/09/19 04:41:36;;;;;;;9.67;2.77;;;;;;;8.07;100.00;100709.66;5997799;28;20031;-64
2022/09/19 04:44:32;;;;;;;3.78;1.75;;;;;;;8.12;100.00;100720.72;5998173;28;20538;-65
2022/09/19 04:47:32;;;;;;;5.17;2.30;;;;;;;8.19;100.00;100721.00;5998572;28;20085;-65
2022/09/19 04:50:28;;;;;;;9.27;2.28;;;;;;;8.16;100.00;100730.03;5997570;28;20059;-67
2022/09/19 04:53:24;;;;;;;7.40;2.50;;;;;;;8.07;100.00;100722.88;5998150;28;20101;-65
2022/09/19 04:56:20;;;;;;;4.95;1.85;;;;;;;8.07;100.00;100730.78;5999725;28;20492;-67
2022/09/19 04:59:15;;;;;;;7.63;2.15;;;;;;;8.13;100.00;100743.50;6016523;28;20034;-65
2022/09/19 05:02:11;;;;;;;5.80;1.80;;;;;;;8.01;100.00;100731.34;6021263;28;20038;-67
2022/09/19 05:05:06;;;;;;;4.30;2.00;;;;;;;8.10;100.00;100742.94;6021642;28;20026;-64
2022/09/19 05:08:04;;;;;;;9.23;2.47;;;;;;;8.09;100.00;100750.00;6021400;28;20041;-67
2022/09/19 05:11:02;;;;;;;10.25;2.33;;;;;;;8.03;100.00;100747.03;6010352;28;20591;-67
2022/09/19 05:14:00;;;;;;;6.47;2.35;;;;;;;7.99;100.00;100741.16;5998013;28;20039;-67
2022/09/19 05:16:55;;;;;;;6.88;2.45;;;;;;;7.98;100.00;100739.50;5997976;28;20565;-65
2022/09/19 05:19:51;;;;;;;8.03;1.87;;;;;;;8.10;100.00;100756.13;5997798;28;20030;-65
2022/09/19 05:22:46;;;;;;;5.07;1.70;;;;;;;8.01;100.00;100744.53;5997756;28;20027;-68
2022/09/19 05:25:42;;;;;;;7.13;1.98;;;;;;;8.14;100.00;100761.03;5998396;28;20467;-67
2022/09/19 05:28:37;;;;;;;8.75;2.35;;;;;;;8.15;100.00;100756.59;5997500;28;20042;-67
2022/09/19 05:31:35;;;;;;;8.90;2.05;;;;;;;8.23;100.00;100760.25;5997423;28;20039;-66
2022/09/19 05:34:30;;;;;;;6.88;2.05;;;;;;;8.37;100.00;100752.00;5997442;28;20043;-67
2022/09/19 05:37:25;;;;;;;3.70;1.70;;;;;;;8.27;100.00;100747.63;6000148;28;20038;-66
2022/09/19 05:40:21;;;;;;;8.80;2.10;;;;;;;8.28;100.00;100758.09;6001338;28;20808;-65
2022/09/19 05:43:16;;;;;;;4.97;1.43;;;;;;;8.30;100.00;100758.78;6001469;28;20057;-67
2022/09/19 05:46:11;;;;;;;6.03;1.90;;;;;;;8.35;100.00;100779.53;6001908;28;20266;-65
2022/09/19 05:49:07;;;;;;;6.72;1.75;;;;;;;8.38;100.00;100785.41;6001344;28;20046;-65
2022/09/19 05:53:52;;;;;;;7.80;1.90;;;;;;;8.42;100.00;100796.56;5993978;28;20051;-67
2022/09/19 05:55:17;;;;;;;3.75;1.50;;;;;;;8.51;100.00;100789.63;6004295;28;20030;-67
2022/09/19 05:58:15;;;;;;;9.57;1.73;;;;;;;8.81;100.00;100808.13;6000902;28;20093;-65
2022/09/19 06:01:12;;;;;;;6.90;1.90;;;;;;;9.09;100.00;100807.44;6001202;28;20442;-67
2022/09/19 06:04:07;;;;;;;5.10;1.67;;;;;;;9.22;100.00;100810.66;6006864;28;20045;-67
2022/09/19 06:07:04;;;;;;;4.60;1.30;;;;;;;9.36;100.00;100809.44;6012635;28;20039;-66
2022/09/19 06:10:00;;;;;;;9.77;1.52;;;;;;;9.51;100.00;100806.25;6001148;28;20035;-68
2022/09/19 06:12:56;;;;;;;6.63;1.40;;;;;;;9.48;100.00;100803.88;6000985;28;20097;-67
2022/09/19 06:15:51;;;;;;;5.20;1.40;;;;;;;9.55;100.00;100807.69;6000672;28;20038;-67
2022/09/19 06:18:47;;;;;;;5.67;1.33;;;;;;;9.61;100.00;100816.03;6001037;28;20561;-68
2022/09/19 06:21:42;;;;;;;6.63;1.75;;;;;;;9.71;100.00;100819.53;6001421;28;20282;-67
2022/09/19 06:24:38;;;;;;;6.27;1.67;;;;;;;9.92;100.00;100822.91;6001292;28;20699;-67
2022/09/19 06:27:35;;;;;;;9.20;1.77;;;;;;;9.88;100.00;100817.06;6016895;28;20030;-67
2022/09/19 06:30:32;;;;;;;5.25;1.92;;;;;;;10.03;100.00;100830.69;5999979;28;20031;-67
2022/09/19 06:33:27;;;;;;;6.18;2.17;;;;;;;9.99;100.00;100830.16;5999988;28;20055;-66
2022/09/19 06:36:23;;;;;;;8.18;2.47;;;;;;;10.20;100.00;100840.63;6001102;28;20042;-67
2022/09/19 06:39:18;;;;;;;7.03;2.60;;;;;;;10.27;100.00;100847.06;6014161;28;20084;-68
2022/09/19 06:42:15;;;;;;;7.13;3.07;;;;;;;10.23;100.00;100837.72;6024051;28;20489;-68
2022/09/19 06:45:10;;;;;;;10.70;3.45;;;;;;;10.44;100.00;100841.03;6023998;28;20034;-67
2022/09/19 06:48:06;;;;;;;8.17;3.13;;;;;;;10.59;100.00;100847.56;6022716;28;20085;-67
2022/09/19 06:51:02;;;;;;;10.82;3.42;;;;;;;10.87;100.00;100858.25;6001534;28;20054;-68
2022/09/19 06:53:57;;;;;;;8.95;3.75;;;;;;;10.93;100.00;100857.66;6000110;28;20601;-67
2022/09/19 06:56:53;;;;;;;7.07;3.90;;;;;;;11.09;100.00;100861.38;6000490;28;20042;-67
2022/09/19 06:59:48;;;;;;;11.57;4.03;;;;;;;11.10;100.00;100864.88;6000112;28;20026;-67
2022/09/19 07:02:43;;;;;;;14.47;5.10;;;;;;;11.06;100.00;100868.81;6000095;28;20853;-67
2022/09/19 07:05:42;;;;;;;12.80;4.97;;;;;;;11.10;100.00;100848.94;6000084;28;20034;-67
2022/09/19 07:08:37;;;;;;;10.32;4.30;;;;;;;11.32;100.00;100864.50;5999889;28;20278;-67
2022/09/19 07:11:35;;;;;;;10.50;4.43;;;;;;;11.49;99.99;100861.06;5999447;28;20439;-66
2022/09/19 07:14:31;;;;;;;13.52;4.93;;;;;;;11.59;98.78;100864.50;6000065;28;20039;-66
2022/09/19 07:17:26;;;;;;;13.50;4.37;;;;;;;11.74;98.33;100870.97;6000565;28;20461;-68
2022/09/19 07:20:23;;;;;;;17.50;4.30;;;;;;;11.84;97.35;100871.78;5999184;28;20282;-68
2022/09/19 07:23:19;;;;;;;11.45;4.00;;;;;;;12.03;97.43;100885.91;5999413;28;20490;-67
2022/09/19 07:26:15;;;;;;;15.05;4.25;;;;;;;12.31;96.69;100868.91;6013513;28;20066;-67
2022/09/19 07:29:10;;;;;;;16.83;4.82;;;;;;;12.36;94.50;100877.25;6023048;28;20038;-67
2022/09/19 07:32:05;;;;;;;14.77;3.77;;;;;;;12.39;94.86;100885.72;6022555;28;20033;-67
2022/09/19 07:35:01;;;;;;;13.50;4.10;;;;;;;12.34;94.08;100885.38;6017912;28;20034;-67
2022/09/19 07:37:56;;;;;;;19.23;4.50;;;;;;;12.58;95.66;100895.38;6001227;28;20035;-68
2022/09/19 07:40:51;;;;;;;19.80;4.80;;;;;;;12.67;93.20;100896.25;5998893;28;20518;-68
2022/09/19 07:43:50;;;;;;;21.35;4.13;;;;;;;12.89;92.98;100898.41;6022735;28;20030;-68
2022/09/19 07:47:26;;;;;;;8.85;3.35;;;;;;;12.84;92.05;100896.25;5999830;28;20034;-68
2022/09/19 07:50:01;;;;;;;14.68;3.60;;;;;;;12.91;92.52;100915.09;5998550;28;20034;-67
2022/09/19 07:53:00;;;;;;;12.73;3.30;;;;;;;12.73;92.71;100907.13;5998798;28;20085;-67
2022/09/19 07:55:56;;;;;;;9.50;3.45;;;;;;;12.91;92.73;100910.56;5998640;28;20058;-66
2022/09/19 07:58:52;;;;;;;15.90;3.47;;;;;;;13.13;92.29;100910.09;6000489;28;20038;-68
2022/09/19 08:01:47;;;;;;;7.78;3.22;;;;;;;13.43;90.58;100921.22;6021673;28;20030;-67
2022/09/19 08:04:43;;;;;;;10.77;2.47;;;;;;;13.58;90.38;100919.66;6018213;28;20468;-67
2022/09/19 08:07:38;;;;;;;13.90;2.28;;;;;;;13.56;89.62;100916.31;6011945;28;20066;-67
2022/09/19 08:10:34;;;;;;;12.63;2.42;;;;;;;13.61;88.92;100919.34;5998848;28;20041;-66
2022/09/19 08:13:29;;;;;;;13.00;3.22;;;;;;;13.38;89.04;100928.88;6000309;28;20067;-67
2022/09/19 08:16:24;;;;;;;6.10;2.20;;;;;;;13.21;90.34;100924.47;6012040;28;20038;-67
2022/09/19 08:19:20;;;;;;;8.43;2.30;;;;;;;13.24;91.65;100932.09;6022415;28;20445;-66
2022/09/19 08:22:16;;;;;;;13.23;2.70;;;;;;;13.51;90.34;100929.25;6021950;28;20042;-66
2022/09/19 08:25:11;;;;;;;9.52;2.13;;;;;;;13.66;90.31;100911.69;6022595;28;20077;-67
2022/09/19 08:28:06;;;;;;;12.40;3.23;;;;;;;13.93;88.62;100911.44;6013448;28;20039;-66
2022/09/19 08:31:03;;;;;;;12.83;2.30;;;;;;;14.35;88.00;100942.56;5998431;28;20328;-66
2022/09/19 08:33:59;;;;;;;15.60;2.88;;;;;;;14.32;86.89;100941.88;5998645;28;20289;-67
2022/09/19 08:36:58;;;;;;;9.65;2.15;;;;;;;14.63;86.99;100939.41;5997776;28;20035;-67
2022/09/19 08:43:32;;;;;;;10.02;2.53;;;;;;;14.97;83.83;100947.25;5994000;28;20034;-67
2022/09/19 08:46:45;;;;;;;7.00;2.22;;;;;;;14.94;83.76;100946.75;5990164;28;20138;-67
2022/09/19 08:49:46;;;;;;;6.80;2.08;;;;;;;15.02;83.88;100941.41;5998190;28;20022;-66
2022/09/19 08:52:46;;;;;;;9.25;1.95;;;;;;;15.19;81.95;100941.19;5996606;28;20042;-67
2022/09/19 08:55:43;;;;;;;5.28;1.33;;;;;;;15.36;81.58;100936.63;5997378;28;20061;-67
2022/09/19 08:58:46;;;;;;;6.78;1.38;;;;;;;15.55;80.87;100952.31;5997614;28;20035;-67
2022/09/19 09:01:41;;;;;;;5.95;1.60;;;;;;;15.57;81.16;100933.44;5997039;28;20047;-68
2022/09/19 09:04:37;;;;;;;11.32;1.35;;;;;;;15.71;79.25;100946.09;6002832;28;20507;-67
2022/09/19 09:07:54;;;;;;;8.80;1.70;;;;;;;15.47;78.69;100942.50;5996867;28;20046;-65
2022/09/19 09:10:55;;;;;;;8.35;1.42;;;;;;;14.94;81.52;100952.94;6003977;28;20152;-65
2022/09/19 09:14:15;;;;;;;8.00;1.30;;;;;;;14.63;82.52;100959.94;6008491;28;20042;-67
2022/09/19 09:17:19;;;;;;;8.13;1.42;;;;;;;14.63;83.94;100965.25;6002989;28;20118;-67
2022/09/19 09:20:46;;;;;;;12.63;1.85;;;;;;;14.45;84.17;100961.91;6004862;28;20039;-67
2022/09/19 09:23:44;;;;;;;9.55;1.77;;;;;;;14.63;85.22;100974.13;6001386;28;20146;-67
2022/09/19 09:26:43;;;;;;;9.00;1.70;;;;;;;14.30;84.50;100967.84;6020361;28;20034;-67
2022/09/19 09:29:44;;;;;;;6.80;1.30;;;;;;;14.23;86.35;100969.53;6021693;28;20039;-66
2022/09/19 09:32:43;;;;;;;10.27;1.80;;;;;;;14.47;85.73;100971.44;6001946;28;20081;-67
2022/09/19 09:35:44;;;;;;;12.57;1.88;;;;;;;14.75;82.74;100974.63;6000623;28;20061;-67
2022/09/19 09:38:47;;;;;;;6.95;1.40;;;;;;;15.13;80.17;100968.59;6016730;28;20423;-66
2022/09/19 09:41:49;;;;;;;7.60;1.40;;;;;;;15.04;81.55;100980.28;6015890;28;20138;-65
2022/09/19 09:44:58;;;;;;;10.23;1.92;;;;;;;15.00;80.63;100986.94;6001870;28;20054;-65
2022/09/19 09:48:09;;;;;;;11.18;1.40;;;;;;;14.93;82.70;100983.28;6020466;28;20088;-65
2022/09/19 09:51:32;;;;;;;10.65;1.50;;;;;;;14.90;82.07;100978.28;6004270;28;20070;-67
2022/09/19 09:58:43;;;;;;;6.22;1.13;;;;;;;14.75;82.21;100977.28;5999211;28;20034;-67
2022/09/19 10:05:07;;;;;;;4.40;1.70;;;;;;;15.39;78.50;100979.91;5993678;28;20058;-67
2022/09/19 10:08:18;;;;;;;9.27;1.50;;;;;;;15.41;77.23;100972.53;6000860;28;20038;-65
2022/09/19 10:11:20;;;;;;;12.10;1.73;;;;;;;15.45;76.78;100968.53;6001238;28;20031;-65
2022/09/19 10:14:21;;;;;;;5.18;1.40;;;;;;;15.49;77.90;100953.84;6016638;28;20085;-65
2022/09/19 10:17:19;;;;;;;12.65;1.35;;;;;;;15.36;77.39;100958.84;6007138;28;20030;-66
2022/09/19 10:20:23;;;;;;;11.00;1.33;;;;;;;15.36;78.28;100963.34;6022946;28;20037;-66
2022/09/19 10:23:23;;;;;;;6.10;1.27;;;;;;;15.46;77.86;100959.53;6006691;28;20078;-65
2022/09/19 10:26:26;;;;;;;5.45;1.10;;;;;;;15.45;75.29;100957.84;6003893;28;20057;-65
2022/09/19 10:29:23;;;;;;;8.77;1.60;;;;;;;15.47;74.94;100955.84;6000021;28;20110;-65
2022/09/19 10:32:23;;;;;;;8.70;1.15;;;;;;;15.62;74.72;100960.50;6000889;28;20069;-65
2022/09/19 10:35:36;;;;;;;6.03;1.40;;;;;;;15.51;73.62;100942.16;6001770;28;20034;-66
2022/09/19 10:38:45;;;;;;;7.75;1.70;;;;;;;15.76;74.10;100947.22;6001217;28;20142;-65
2022/09/19 10:41:42;;;;;;;6.45;1.00;;;;;;;16.38;71.79;100948.06;6000547;28;20047;-65
2022/09/19 10:44:38;;;;;;;7.00;1.30;;;;;;;16.58;68.99;100930.53;5999713;28;20043;-65
2022/09/19 10:47:36;;;;;;;10.57;1.40;;;;;;;16.29;69.17;100935.72;6000776;28;20031;-65
2022/09/19 10:50:31;;;;;;;5.25;1.40;;;;;;;15.81;70.48;100928.00;6000398;28;20078;-65
2022/09/19 10:53:32;;;;;;;5.40;1.20;;;;;;;16.04;70.90;100920.84;5999483;28;20058;-66
2022/09/19 10:56:29;;;;;;;6.80;1.02;;;;;;;16.64;69.96;100916.41;6016753;28;20152;-64
2022/09/19 10:59:36;;;;;;;10.82;1.65;;;;;;;17.15;70.10;100911.25;5999207;28;20094;-67
2022/09/19 11:02:31;;;;;;;6.07;0.82;;;;;;;17.40;66.55;100909.13;6000191;28;20501;-66
2022/09/19 11:05:29;;;;;;;5.10;1.05;;;;;;;17.40;65.19;100920.69;5998812;28;20035;-65
2022/09/19 11:08:25;;;;;;;6.45;1.05;;;;;;;17.36;63.56;100899.81;5999869;28;20146;-66
2022/09/19 11:11:38;;;;;;;4.72;1.58;;;;;;;17.18;64.77;100916.22;5999678;28;20047;-66
2022/09/19 11:14:36;;;;;;;;;;;;;;;17.56;66.08;100915.16;6012834;28;20026;-66
2022/09/19 11:17:47;;;;;;;2.35;0.70;;;;;;;17.82;62.15;100912.84;6022307;28;20008;-66
2022/09/19 11:20:45;;;;;;;4.22;1.08;;;;;;;17.00;64.78;100918.44;6021896;28;20037;-65
2022/09/19 11:23:56;;;;;;;6.20;1.05;;;;;;;16.70;66.65;100911.34;6011495;28;20045;-65
2022/09/19 11:27:22;;;;;;;5.68;1.10;;;;;;;16.38;67.68;100928.50;6019790;28;20033;-65
2022/09/19 11:30:25;;;;;;;8.15;1.27;;;;;;;16.28;68.02;100925.22;6021812;28;20057;-66
2022/09/19 11:33:38;;;;;;;9.63;1.60;;;;;;;16.56;71.72;100927.19;6014598;28;20088;-66
2022/09/19 11:37:04;;;;;;;5.35;1.38;;;;;;;15.93;76.05;100940.78;6023015;28;20044;-65
2022/09/19 11:40:07;;;;;;;4.40;1.33;;;;;;;15.06;79.07;100940.88;6012768;28;20474;-64
2022/09/19 11:43:33;;;;;;;6.45;1.10;;;;;;;14.76;78.96;100947.75;5999183;28;20069;-65
2022/09/19 11:46:49;;;;;;;5.90;0.77;;;;;;;14.39;80.77;100947.41;5999974;28;20125;-65
2022/09/19 11:50:02;;;;;;;2.70;0.95;;;;;;;14.09;84.87;100930.16;5997828;28;20027;-65
2022/09/19 11:53:09;;;;;;;7.95;1.38;;;;;;;13.35;87.80;100918.53;5999501;28;20038;-65
2022/09/19 11:56:23;;;;;;;5.60;1.55;;;;;;;13.09;91.53;100929.22;5999340;28;20026;-65
2022/09/19 11:59:39;;;;;;;5.15;1.20;;;;;;;12.93;94.86;100929.91;5999254;28;20471;-65
2022/09/19 12:03:02;;;;;;;4.22;1.20;;;;;;;12.87;96.23;100930.53;5997648;28;20118;-65
2022/09/19 12:06:13;;;;;;;6.22;1.45;;;;;;;13.29;98.18;100927.97;5996584;28;20031;-64
2022/09/19 12:09:13;;;;;;;4.72;1.67;;;;;;;13.94;99.70;100936.28;5998392;28;20035;-65
2022/09/19 12:12:15;;;;;;;3.13;1.10;;;;;;;14.22;96.54;100945.66;5998869;28;20039;-65
2022/09/19 12:15:22;;;;;;;9.32;1.85;;;;;;;14.54;94.95;100950.25;5997511;28;20113;-65
2022/09/19 12:18:22;;;;;;;8.00;1.25;;;;;;;14.40;89.69;100942.91;5998101;28;20042;-66
2022/09/19 12:21:19;;;;;;;10.73;1.60;;;;;;;14.00;86.79;100963.09;5998361;28;20114;-65
2022/09/19 12:24:56;;;;;;;7.53;0.90;;;;;;;13.34;85.47;100964.81;5998070;28;20039;-65
2022/09/19 12:28:15;;;;;;;3.15;0.80;;;;;;;12.52;87.60;100978.47;5998521;28;20066;-66
2022/09/19 12:31:12;;;;;;;5.88;1.10;;;;;;;12.04;91.32;100977.97;5998220;28;20027;-65
2022/09/19 12:34:35;;;;;;;4.45;0.80;;;;;;;11.81;93.47;100983.66;5997803;28;20034;-67
2022/09/19 12:37:37;;;;;;;2.85;1.10;;;;;;;11.55;95.91;100961.38;5997756;28;20038;-64
2022/09/19 12:40:53;;;;;;;5.57;1.17;;;;;;;11.50;97.62;101006.13;5997041;28;20462;-66
2022/09/19 12:44:04;;;;;;;6.53;1.20;;;;;;;11.38;100.00;101041.81;5997647;28;20058;-66
2022/09/19 12:47:13;;;;;;;7.95;1.40;;;;;;;11.30;100.00;101092.13;5999239;28;20035;-68
2022/09/19 12:50:19;;;;;;;4.20;1.23;;;;;;;10.52;100.00;101103.66;6001557;28;20065;-67
2022/09/19 12:53:21;;;;;;;3.83;1.10;;;;;;;10.00;100.00;101123.25;6012717;28;20474;-66
2022/09/19 12:56:22;;;;;;;6.65;0.70;;;;;;;9.33;100.00;101075.19;6019902;28;20035;-70
2022/09/19 12:59:19;;;;;;;6.20;1.33;;;;;;;9.22;100.00;101067.31;6001926;28;20085;-66
2022/09/19 13:02:28;;;;;;;2.00;0.80;;;;;;;9.48;100.00;101047.41;6002325;28;20030;-68
2022/09/19 13:05:33;;;;;;;2.17;0.93;;;;;;;9.74;100.00;101057.59;6001404;28;20074;-66
2022/09/19 13:08:52;;;;;;;1.55;0.70;;;;;;;9.84;100.00;101045.22;6003075;28;20053;-66
2022/09/19 13:11:54;;;;;;;2.03;1.00;;;;;;;9.50;100.00;101019.03;5982589;28;20051;-68
2022/09/19 13:14:56;;;;;;;4.15;2.05;;;;;;;9.65;100.00;101000.16;6002686;28;20026;-68
2022/09/19 13:24:42;;;;;;;3.60;0.88;;;;;;;9.97;100.00;101012.22;6002433;28;20035;-65
2022/09/19 13:27:38;;;;;;;6.03;1.00;;;;;;;10.08;100.00;101024.56;6002579;28;20058;-65
2022/09/19 13:30:59;;;;;;;2.70;1.00;;;;;;;10.45;100.00;101019.50;6002160;28;20537;-66
2022/09/19 13:33:58;;;;;;;2.08;0.80;;;;;;;10.92;100.00;101031.09;6004804;28;20042;-64
2022/09/19 13:36:53;;;;;;;4.13;1.30;;;;;;;11.21;100.00;101037.22;6001298;28;20096;-65
2022/09/19 13:39:55;;;;;;;2.37;0.93;;;;;;;11.25;100.00;101028.81;6002388;28;20039;-65
2022/09/19 13:43:08;;;;;;;4.32;0.98;;;;;;;11.46;100.00;101020.69;6002082;28;20031;-65
2022/09/19 13:46:06;;;;;;;1.27;0.73;;;;;;;11.93;100.00;101032.97;6002209;28;20035;-65
2022/09/19 13:49:11;;;;;;;3.20;0.50;;;;;;;12.11;100.00;101013.59;6002548;28;20109;-65
2022/09/19 13:52:31;;;;;;;1.20;0.52;;;;;;;12.51;100.00;101012.22;6001827;28;20126;-65
2022/09/19 13:55:35;;;;;;;2.03;0.68;;;;;;;12.91;100.00;100998.41;6001761;28;20386;-65
2022/09/19 13:58:39;;;;;;;1.33;0.50;;;;;;;13.48;100.00;100989.03;6000420;28;20039;-65
2022/09/19 14:01:36;;;;;;;3.33;0.73;;;;;;;14.04;98.38;100993.81;6000683;28;20117;-65
2022/09/19 14:04:55;;;;;;;0.77;0.50;;;;;;;14.24;93.43;100987.19;6018014;28;20521;-65
2022/09/19 14:07:59;;;;;;;1.58;0.50;;;;;;;14.55;91.14;100995.44;6027799;28;20039;-66
2022/09/19 14:10:56;;;;;;;1.10;0.60;;;;;;;14.86;89.84;100995.66;6000946;28;20398;-65
2022/09/19 14:13:51;;;;;;;2.30;0.50;;;;;;;14.78;86.66;100975.09;6000420;28;20130;-65
2022/09/19 14:17:18;;;;;;;1.77;0.30;;;;;;;15.22;87.84;100988.94;6001707;28;20039;-65
2022/09/19 14:20:54;;;;;;;1.38;0.80;;;;;;;15.05;84.43;100987.31;6005941;28;20035;-65